Impacts TAF Board
For situational awareness. Not to be used for flight planning purposes.
IDs:

KGUY - Guymon Muni, OK, US

Issued at 1724 UTC 08 Aug 2020
Updated at 2111 UTC 08 Aug 2020
Potential Impact None Slight Moderate High
Time2053Z 08/22Z 08/23Z 09/00Z 09/01Z 09/02Z 09/03Z 09/04Z 09/05Z 09/06Z 09/07Z 09/08Z 09/09Z 09/10Z>>
Type OBS PRVL PRVL PRVL PRVL PRVL PRVL PRVL PRVL PRVL PRVL PRVL PRVL PRVL
VIS 10 >6 >6 >6 >6 >6 >6 >6 >6 >6 >6 >6 >6 >6
CIG -- -- -- -- -- -- -- -- -- -- -- -- -- --
Cover CLR FEW FEW FEW FEW FEW FEW FEW FEW FEW FEW FEW SCT SCT
FltCat VFR VFR VFR VFR VFR VFR VFR VFR VFR VFR VFR VFR VFR VFR
WX -- -- -- -- -- -- -- -- -- -- -- -- -- --
WDir 210 210 210 210 210 210 210 210 210 210 210 210 210 210
WSpd 20 15 15 15 15 15 15 15 15 15 15 15 10 10
WGst 26 -- -- -- -- -- -- -- -- -- -- -- 18 18
Raw TAF
KGUY 081724Z 0818/0918 21015KT P6SM FEW250
  FM090900 21010G18KT P6SM SCT250


Raw METAR
KGUY 082053Z AUTO 21020G26KT 10SM CLR 38/13 A2992 RMK AO2 PK WND 21026/2052 SLP073 T03780133 56010
KGUY 081953Z AUTO 20020G25KT 10SM CLR 38/13 A2993 RMK AO2 PK WND 21026/1939 SLP073 T03830128
KGUY 081853Z AUTO 21015G22KT 10SM CLR 37/13 A2994 RMK AO2 SLP080 T03720128

METAR Board
Radar Display
Forecast Discussion
For situational awareness. Not to be used for flight planning purposes.